sensor_id;sensor_type;location;lat;lon;timestamp;P1;durP1;ratioP1;P2;durP2;ratioP2
56599;SDS011;51832;48.152;11.530;2022-12-10T00:02:20;44.97;;;18.77;;
56599;SDS011;51832;48.152;11.530;2022-12-10T00:07:21;48.28;;;19.25;;
56599;SDS011;51832;48.152;11.530;2022-12-10T00:12:21;40.70;;;16.70;;
56599;SDS011;51832;48.152;11.530;2022-12-10T00:17:22;42.57;;;17.07;;
56599;SDS011;51832;48.152;11.530;2022-12-10T00:22:22;46.13;;;17.92;;
56599;SDS011;51832;48.152;11.530;2022-12-10T00:27:22;48.90;;;18.47;;
56599;SDS011;51832;48.152;11.530;2022-12-10T00:32:23;46.72;;;18.05;;
56599;SDS011;51832;48.152;11.530;2022-12-10T00:37:23;44.05;;;18.63;;
56599;SDS011;51832;48.152;11.530;2022-12-10T00:42:23;46.03;;;18.63;;
56599;SDS011;51832;48.152;11.530;2022-12-10T00:47:24;43.83;;;18.13;;
56599;SDS011;51832;48.152;11.530;2022-12-10T00:52:24;39.03;;;17.23;;
56599;SDS011;51832;48.152;11.530;2022-12-10T00:57:25;38.47;;;16.38;;
56599;SDS011;51832;48.152;11.530;2022-12-10T01:02:25;42.35;;;17.42;;
56599;SDS011;51832;48.152;11.530;2022-12-10T01:07:25;46.23;;;17.27;;
56599;SDS011;51832;48.152;11.530;2022-12-10T01:12:26;37.85;;;16.27;;
56599;SDS011;51832;48.152;11.530;2022-12-10T01:17:26;40.42;;;17.17;;
56599;SDS011;51832;48.152;11.530;2022-12-10T01:22:26;44.95;;;17.52;;
56599;SDS011;51832;48.152;11.530;2022-12-10T01:27:27;42.45;;;16.90;;
56599;SDS011;51832;48.152;11.530;2022-12-10T01:32:27;45.40;;;16.60;;
56599;SDS011;51832;48.152;11.530;2022-12-10T01:37:28;46.10;;;18.20;;
56599;SDS011;51832;48.152;11.530;2022-12-10T01:42:28;48.80;;;18.48;;
56599;SDS011;51832;48.152;11.530;2022-12-10T01:47:28;42.05;;;17.15;;
56599;SDS011;51832;48.152;11.530;2022-12-10T01:52:29;47.17;;;18.20;;
56599;SDS011;51832;48.152;11.530;2022-12-10T01:57:29;45.15;;;18.05;;
56599;SDS011;51832;48.152;11.530;2022-12-10T02:08:05;45.35;;;19.02;;
56599;SDS011;51832;48.152;11.530;2022-12-10T02:13:20;45.67;;;18.48;;
56599;SDS011;51832;48.152;11.530;2022-12-10T02:18:29;47.78;;;17.95;;
56599;SDS011;51832;48.152;11.530;2022-12-10T02:23:46;43.58;;;16.95;;
56599;SDS011;51832;48.152;11.530;2022-12-10T02:33:55;44.60;;;18.08;;
56599;SDS011;51832;48.152;11.530;2022-12-10T02:38:58;41.78;;;18.48;;
56599;SDS011;51832;48.152;11.530;2022-12-10T02:49:04;45.55;;;17.40;;
56599;SDS011;51832;48.152;11.530;2022-12-10T02:54:32;49.33;;;17.20;;
56599;SDS011;51832;48.152;11.530;2022-12-10T02:59:39;44.13;;;17.08;;
56599;SDS011;51832;48.152;11.530;2022-12-10T03:15:10;37.90;;;16.52;;
56599;SDS011;51832;48.152;11.530;2022-12-10T03:20:13;34.72;;;15.38;;
56599;SDS011;51832;48.152;11.530;2022-12-10T03:25:17;35.70;;;15.82;;
56599;SDS011;51832;48.152;11.530;2022-12-10T03:30:21;38.00;;;16.83;;
56599;SDS011;51832;48.152;11.530;2022-12-10T03:35:22;35.03;;;14.48;;
56599;SDS011;51832;48.152;11.530;2022-12-10T03:40:24;38.33;;;16.38;;
56599;SDS011;51832;48.152;11.530;2022-12-10T03:45:25;38.55;;;15.50;;
56599;SDS011;51832;48.152;11.530;2022-12-10T03:50:26;37.22;;;16.38;;
56599;SDS011;51832;48.152;11.530;2022-12-10T03:55:26;35.45;;;15.75;;
56599;SDS011;51832;48.152;11.530;2022-12-10T04:00:26;39.45;;;16.40;;
56599;SDS011;51832;48.152;11.530;2022-12-10T04:05:27;38.25;;;16.27;;
56599;SDS011;51832;48.152;11.530;2022-12-10T04:10:27;42.95;;;18.08;;
56599;SDS011;51832;48.152;11.530;2022-12-10T04:15:28;41.38;;;16.65;;
56599;SDS011;51832;48.152;11.530;2022-12-10T04:20:57;44.00;;;16.92;;
56599;SDS011;51832;48.152;11.530;2022-12-10T04:26:16;41.25;;;15.82;;
56599;SDS011;51832;48.152;11.530;2022-12-10T04:31:35;41.70;;;17.48;;
56599;SDS011;51832;48.152;11.530;2022-12-10T04:36:35;36.17;;;15.73;;
56599;SDS011;51832;48.152;11.530;2022-12-10T04:41:35;38.80;;;15.70;;
56599;SDS011;51832;48.152;11.530;2022-12-10T04:46:36;38.20;;;16.55;;
56599;SDS011;51832;48.152;11.530;2022-12-10T04:51:38;36.78;;;17.60;;
56599;SDS011;51832;48.152;11.530;2022-12-10T04:56:39;41.50;;;17.27;;
56599;SDS011;51832;48.152;11.530;2022-12-10T05:01:40;38.65;;;17.48;;
56599;SDS011;51832;48.152;11.530;2022-12-10T05:06:40;38.50;;;16.70;;
56599;SDS011;51832;48.152;11.530;2022-12-10T05:11:41;39.67;;;17.05;;
56599;SDS011;51832;48.152;11.530;2022-12-10T05:16:44;37.00;;;16.63;;
56599;SDS011;51832;48.152;11.530;2022-12-10T05:21:44;36.47;;;15.95;;
56599;SDS011;51832;48.152;11.530;2022-12-10T05:27:03;42.55;;;18.10;;
56599;SDS011;51832;48.152;11.530;2022-12-10T05:32:05;35.67;;;16.48;;
56599;SDS011;51832;48.152;11.530;2022-12-10T05:37:05;39.13;;;17.63;;
56599;SDS011;51832;48.152;11.530;2022-12-10T05:42:05;33.17;;;15.93;;
56599;SDS011;51832;48.152;11.530;2022-12-10T05:47:06;34.78;;;15.88;;
56599;SDS011;51832;48.152;11.530;2022-12-10T05:52:06;32.63;;;15.25;;
56599;SDS011;51832;48.152;11.530;2022-12-10T05:57:08;36.97;;;16.15;;
56599;SDS011;51832;48.152;11.530;2022-12-10T06:02:08;19.98;;;9.20;;
56599;SDS011;51832;48.152;11.530;2022-12-10T06:07:09;56.58;;;21.17;;
56599;SDS011;51832;48.152;11.530;2022-12-10T06:12:09;73.63;;;26.08;;
56599;SDS011;51832;48.152;11.530;2022-12-10T06:17:10;42.50;;;19.67;;
56599;SDS011;51832;48.152;11.530;2022-12-10T06:22:10;28.73;;;14.37;;
56599;SDS011;51832;48.152;11.530;2022-12-10T06:27:10;25.33;;;14.13;;
56599;SDS011;51832;48.152;11.530;2022-12-10T06:32:11;27.90;;;15.23;;
56599;SDS011;51832;48.152;11.530;2022-12-10T06:37:11;26.23;;;14.07;;
56599;SDS011;51832;48.152;11.530;2022-12-10T06:42:12;29.10;;;15.18;;
56599;SDS011;51832;48.152;11.530;2022-12-10T06:47:12;30.60;;;14.85;;
56599;SDS011;51832;48.152;11.530;2022-12-10T06:52:13;31.20;;;15.65;;
56599;SDS011;51832;48.152;11.530;2022-12-10T06:57:14;32.10;;;14.93;;
56599;SDS011;51832;48.152;11.530;2022-12-10T07:02:14;31.95;;;14.90;;
56599;SDS011;51832;48.152;11.530;2022-12-10T07:07:15;34.50;;;15.35;;
56599;SDS011;51832;48.152;11.530;2022-12-10T07:12:15;32.08;;;14.18;;
56599;SDS011;51832;48.152;11.530;2022-12-10T07:17:15;30.57;;;13.67;;
56599;SDS011;51832;48.152;11.530;2022-12-10T07:22:16;30.13;;;14.20;;
56599;SDS011;51832;48.152;11.530;2022-12-10T07:27:17;30.92;;;12.65;;
56599;SDS011;51832;48.152;11.530;2022-12-10T07:32:17;24.50;;;12.52;;
56599;SDS011;51832;48.152;11.530;2022-12-10T07:37:18;25.95;;;12.50;;
56599;SDS011;51832;48.152;11.530;2022-12-10T07:42:18;24.48;;;13.18;;
56599;SDS011;51832;48.152;11.530;2022-12-10T07:47:19;30.92;;;13.77;;
56599;SDS011;51832;48.152;11.530;2022-12-10T07:52:19;29.02;;;13.70;;
56599;SDS011;51832;48.152;11.530;2022-12-10T07:57:20;31.17;;;14.25;;
56599;SDS011;51832;48.152;11.530;2022-12-10T08:02:21;25.98;;;13.40;;
56599;SDS011;51832;48.152;11.530;2022-12-10T08:07:22;27.92;;;13.65;;
56599;SDS011;51832;48.152;11.530;2022-12-10T08:12:22;28.13;;;13.00;;
56599;SDS011;51832;48.152;11.530;2022-12-10T08:17:23;28.40;;;13.32;;
56599;SDS011;51832;48.152;11.530;2022-12-10T08:22:23;29.13;;;13.50;;
56599;SDS011;51832;48.152;11.530;2022-12-10T08:27:23;32.60;;;15.93;;
56599;SDS011;51832;48.152;11.530;2022-12-10T08:32:24;33.47;;;15.38;;
56599;SDS011;51832;48.152;11.530;2022-12-10T08:37:24;31.65;;;15.18;;
56599;SDS011;51832;48.152;11.530;2022-12-10T08:42:25;34.80;;;14.90;;
56599;SDS011;51832;48.152;11.530;2022-12-10T08:47:25;34.85;;;16.08;;
56599;SDS011;51832;48.152;11.530;2022-12-10T08:52:25;38.67;;;16.97;;
56599;SDS011;51832;48.152;11.530;2022-12-10T08:57:29;37.80;;;17.63;;
56599;SDS011;51832;48.152;11.530;2022-12-10T09:02:29;39.40;;;17.10;;
56599;SDS011;51832;48.152;11.530;2022-12-10T09:07:29;35.55;;;15.75;;
56599;SDS011;51832;48.152;11.530;2022-12-10T09:12:30;35.60;;;16.73;;
56599;SDS011;51832;48.152;11.530;2022-12-10T09:17:34;33.80;;;15.35;;
56599;SDS011;51832;48.152;11.530;2022-12-10T09:22:35;32.85;;;15.15;;
56599;SDS011;51832;48.152;11.530;2022-12-10T09:27:38;37.20;;;15.60;;
56599;SDS011;51832;48.152;11.530;2022-12-10T09:32:39;35.23;;;15.77;;
56599;SDS011;51832;48.152;11.530;2022-12-10T09:37:39;35.35;;;16.00;;
56599;SDS011;51832;48.152;11.530;2022-12-10T09:42:43;34.15;;;15.38;;
56599;SDS011;51832;48.152;11.530;2022-12-10T09:53:29;35.92;;;15.85;;
56599;SDS011;51832;48.152;11.530;2022-12-10T09:58:31;37.35;;;16.02;;
56599;SDS011;51832;48.152;11.530;2022-12-10T10:03:40;35.22;;;16.25;;
56599;SDS011;51832;48.152;11.530;2022-12-10T10:08:45;35.97;;;16.48;;
56599;SDS011;51832;48.152;11.530;2022-12-10T10:19:28;38.75;;;15.73;;
56599;SDS011;51832;48.152;11.530;2022-12-10T10:24:34;34.75;;;14.73;;
56599;SDS011;51832;48.152;11.530;2022-12-10T10:29:37;39.67;;;15.38;;
56599;SDS011;51832;48.152;11.530;2022-12-10T10:34:38;39.50;;;16.38;;
56599;SDS011;51832;48.152;11.530;2022-12-10T10:39:40;35.60;;;15.70;;
56599;SDS011;51832;48.152;11.530;2022-12-10T10:44:46;37.42;;;15.55;;
56599;SDS011;51832;48.152;11.530;2022-12-10T10:49:47;36.20;;;15.50;;
56599;SDS011;51832;48.152;11.530;2022-12-10T10:54:47;36.08;;;16.08;;
56599;SDS011;51832;48.152;11.530;2022-12-10T10:59:49;38.58;;;15.73;;
56599;SDS011;51832;48.152;11.530;2022-12-10T11:04:53;30.77;;;14.35;;
56599;SDS011;51832;48.152;11.530;2022-12-10T11:09:55;39.60;;;17.47;;
56599;SDS011;51832;48.152;11.530;2022-12-10T11:14:56;37.03;;;16.17;;
56599;SDS011;51832;48.152;11.530;2022-12-10T11:19:58;41.13;;;17.45;;
56599;SDS011;51832;48.152;11.530;2022-12-10T11:25:01;38.17;;;15.85;;
56599;SDS011;51832;48.152;11.530;2022-12-10T11:30:03;36.45;;;16.88;;
56599;SDS011;51832;48.152;11.530;2022-12-10T11:35:11;34.17;;;15.80;;
56599;SDS011;51832;48.152;11.530;2022-12-10T11:56:34;36.50;;;16.42;;
56599;SDS011;51832;48.152;11.530;2022-12-10T12:01:54;38.20;;;16.63;;
56599;SDS011;51832;48.152;11.530;2022-12-10T12:17:37;34.72;;;15.27;;
56599;SDS011;51832;48.152;11.530;2022-12-10T12:23:05;40.28;;;17.05;;
56599;SDS011;51832;48.152;11.530;2022-12-10T12:28:31;40.00;;;16.75;;
56599;SDS011;51832;48.152;11.530;2022-12-10T12:44:03;36.08;;;16.17;;
56599;SDS011;51832;48.152;11.530;2022-12-10T12:49:29;42.50;;;16.65;;
56599;SDS011;51832;48.152;11.530;2022-12-10T12:54:32;40.72;;;16.05;;
56599;SDS011;51832;48.152;11.530;2022-12-10T13:05:03;39.20;;;18.15;;
56599;SDS011;51832;48.152;11.530;2022-12-10T13:15:17;32.90;;;16.55;;
56599;SDS011;51832;48.152;11.530;2022-12-10T13:25:37;42.35;;;16.50;;
56599;SDS011;51832;48.152;11.530;2022-12-10T13:36:23;40.88;;;15.98;;
56599;SDS011;51832;48.152;11.530;2022-12-10T13:41:26;39.95;;;16.17;;
56599;SDS011;51832;48.152;11.530;2022-12-10T13:46:52;35.10;;;16.85;;
56599;SDS011;51832;48.152;11.530;2022-12-10T13:52:03;37.80;;;16.50;;
56599;SDS011;51832;48.152;11.530;2022-12-10T14:07:23;41.90;;;16.77;;
56599;SDS011;51832;48.152;11.530;2022-12-10T14:12:30;33.33;;;15.70;;
56599;SDS011;51832;48.152;11.530;2022-12-10T14:17:38;38.20;;;16.60;;
56599;SDS011;51832;48.152;11.530;2022-12-10T14:22:46;41.70;;;17.30;;
56599;SDS011;51832;48.152;11.530;2022-12-10T14:27:51;40.80;;;17.80;;
56599;SDS011;51832;48.152;11.530;2022-12-10T14:32:53;40.13;;;17.75;;
56599;SDS011;51832;48.152;11.530;2022-12-10T14:37:57;36.75;;;17.02;;
56599;SDS011;51832;48.152;11.530;2022-12-10T14:43:03;43.47;;;18.35;;
56599;SDS011;51832;48.152;11.530;2022-12-10T14:48:06;41.17;;;18.58;;
56599;SDS011;51832;48.152;11.530;2022-12-10T14:53:27;41.50;;;18.85;;
56599;SDS011;51832;48.152;11.530;2022-12-10T15:03:39;44.75;;;19.90;;
56599;SDS011;51832;48.152;11.530;2022-12-10T15:08:46;39.08;;;18.65;;
56599;SDS011;51832;48.152;11.530;2022-12-10T15:13:48;42.88;;;18.67;;
56599;SDS011;51832;48.152;11.530;2022-12-10T15:18:51;39.55;;;18.33;;
56599;SDS011;51832;48.152;11.530;2022-12-10T15:29:29;41.78;;;18.75;;
56599;SDS011;51832;48.152;11.530;2022-12-10T15:34:34;37.83;;;16.63;;
56599;SDS011;51832;48.152;11.530;2022-12-10T15:39:44;36.78;;;16.98;;
56599;SDS011;51832;48.152;11.530;2022-12-10T15:44:56;31.30;;;14.07;;
56599;SDS011;51832;48.152;11.530;2022-12-10T15:49:59;33.85;;;13.55;;
56599;SDS011;51832;48.152;11.530;2022-12-10T15:55:00;26.00;;;12.88;;
56599;SDS011;51832;48.152;11.530;2022-12-10T16:00:08;33.78;;;14.43;;
56599;SDS011;51832;48.152;11.530;2022-12-10T16:05:17;26.52;;;12.63;;
56599;SDS011;51832;48.152;11.530;2022-12-10T16:10:23;27.35;;;13.20;;
56599;SDS011;51832;48.152;11.530;2022-12-10T16:15:26;32.08;;;14.25;;
56599;SDS011;51832;48.152;11.530;2022-12-10T16:20:29;33.83;;;14.88;;
56599;SDS011;51832;48.152;11.530;2022-12-10T16:25:30;29.92;;;13.75;;
56599;SDS011;51832;48.152;11.530;2022-12-10T16:30:34;36.17;;;15.23;;
56599;SDS011;51832;48.152;11.530;2022-12-10T16:35:36;31.08;;;13.35;;
56599;SDS011;51832;48.152;11.530;2022-12-10T16:40:37;31.50;;;13.88;;
56599;SDS011;51832;48.152;11.530;2022-12-10T16:45:39;29.13;;;13.65;;
56599;SDS011;51832;48.152;11.530;2022-12-10T16:50:40;28.00;;;13.07;;
56599;SDS011;51832;48.152;11.530;2022-12-10T16:55:41;31.35;;;14.27;;
56599;SDS011;51832;48.152;11.530;2022-12-10T17:00:43;29.92;;;14.05;;
56599;SDS011;51832;48.152;11.530;2022-12-10T17:05:54;33.10;;;13.15;;
56599;SDS011;51832;48.152;11.530;2022-12-10T17:10:57;37.00;;;15.20;;
56599;SDS011;51832;48.152;11.530;2022-12-10T17:16:18;37.53;;;15.15;;
56599;SDS011;51832;48.152;11.530;2022-12-10T17:21:22;32.15;;;15.05;;
56599;SDS011;51832;48.152;11.530;2022-12-10T17:26:26;38.20;;;15.70;;
56599;SDS011;51832;48.152;11.530;2022-12-10T17:31:29;30.15;;;14.15;;
56599;SDS011;51832;48.152;11.530;2022-12-10T17:36:30;29.50;;;12.65;;
56599;SDS011;51832;48.152;11.530;2022-12-10T17:41:30;30.17;;;13.73;;
56599;SDS011;51832;48.152;11.530;2022-12-10T17:46:31;30.48;;;13.48;;
56599;SDS011;51832;48.152;11.530;2022-12-10T17:51:31;32.10;;;14.25;;
56599;SDS011;51832;48.152;11.530;2022-12-10T17:56:32;32.83;;;14.60;;
56599;SDS011;51832;48.152;11.530;2022-12-10T18:01:32;44.30;;;18.75;;
56599;SDS011;51832;48.152;11.530;2022-12-10T18:06:33;36.03;;;16.45;;
56599;SDS011;51832;48.152;11.530;2022-12-10T18:11:34;40.45;;;16.88;;
56599;SDS011;51832;48.152;11.530;2022-12-10T18:16:35;41.58;;;17.15;;
56599;SDS011;51832;48.152;11.530;2022-12-10T18:21:36;34.67;;;17.25;;
56599;SDS011;51832;48.152;11.530;2022-12-10T18:26:37;38.38;;;17.50;;
56599;SDS011;51832;48.152;11.530;2022-12-10T18:31:37;39.30;;;16.38;;
56599;SDS011;51832;48.152;11.530;2022-12-10T18:36:39;40.83;;;16.75;;
56599;SDS011;51832;48.152;11.530;2022-12-10T18:41:41;41.08;;;17.15;;
56599;SDS011;51832;48.152;11.530;2022-12-10T18:46:42;38.90;;;16.67;;
56599;SDS011;51832;48.152;11.530;2022-12-10T18:51:43;39.65;;;17.88;;
56599;SDS011;51832;48.152;11.530;2022-12-10T18:56:43;38.47;;;17.58;;
56599;SDS011;51832;48.152;11.530;2022-12-10T19:01:44;44.35;;;18.70;;
56599;SDS011;51832;48.152;11.530;2022-12-10T19:06:45;39.10;;;15.95;;
56599;SDS011;51832;48.152;11.530;2022-12-10T19:11:46;42.83;;;18.02;;
56599;SDS011;51832;48.152;11.530;2022-12-10T19:16:50;42.00;;;18.60;;
56599;SDS011;51832;48.152;11.530;2022-12-10T19:21:51;49.83;;;20.17;;
56599;SDS011;51832;48.152;11.530;2022-12-10T19:26:51;43.22;;;18.83;;
56599;SDS011;51832;48.152;11.530;2022-12-10T19:31:52;40.42;;;18.40;;
56599;SDS011;51832;48.152;11.530;2022-12-10T19:36:55;42.17;;;17.48;;
56599;SDS011;51832;48.152;11.530;2022-12-10T19:41:55;39.20;;;18.33;;
56599;SDS011;51832;48.152;11.530;2022-12-10T19:46:56;43.78;;;18.27;;
56599;SDS011;51832;48.152;11.530;2022-12-10T19:51:57;45.22;;;20.25;;
56599;SDS011;51832;48.152;11.530;2022-12-10T19:56:57;45.05;;;19.83;;
56599;SDS011;51832;48.152;11.530;2022-12-10T20:01:57;40.85;;;18.13;;
56599;SDS011;51832;48.152;11.530;2022-12-10T20:06:58;40.53;;;18.08;;
56599;SDS011;51832;48.152;11.530;2022-12-10T20:11:58;48.63;;;19.23;;
56599;SDS011;51832;48.152;11.530;2022-12-10T20:16:59;49.13;;;20.08;;
56599;SDS011;51832;48.152;11.530;2022-12-10T20:21:59;43.92;;;18.55;;
56599;SDS011;51832;48.152;11.530;2022-12-10T20:27:01;44.42;;;19.63;;
56599;SDS011;51832;48.152;11.530;2022-12-10T20:32:01;44.53;;;18.38;;
56599;SDS011;51832;48.152;11.530;2022-12-10T20:37:03;42.78;;;19.15;;
56599;SDS011;51832;48.152;11.530;2022-12-10T20:42:03;42.92;;;18.92;;
56599;SDS011;51832;48.152;11.530;2022-12-10T20:47:04;40.40;;;17.88;;
56599;SDS011;51832;48.152;11.530;2022-12-10T20:52:08;44.63;;;18.65;;
56599;SDS011;51832;48.152;11.530;2022-12-10T20:57:10;45.38;;;19.50;;
56599;SDS011;51832;48.152;11.530;2022-12-10T21:02:10;42.17;;;16.92;;
56599;SDS011;51832;48.152;11.530;2022-12-10T21:07:13;50.55;;;18.60;;
56599;SDS011;51832;48.152;11.530;2022-12-10T21:12:14;47.15;;;18.08;;
56599;SDS011;51832;48.152;11.530;2022-12-10T21:17:15;45.58;;;18.45;;
56599;SDS011;51832;48.152;11.530;2022-12-10T21:22:15;44.53;;;18.80;;
56599;SDS011;51832;48.152;11.530;2022-12-10T21:27:16;42.60;;;18.27;;
56599;SDS011;51832;48.152;11.530;2022-12-10T21:32:17;38.60;;;17.08;;
56599;SDS011;51832;48.152;11.530;2022-12-10T21:37:19;42.13;;;18.23;;
56599;SDS011;51832;48.152;11.530;2022-12-10T21:42:20;43.38;;;17.90;;
56599;SDS011;51832;48.152;11.530;2022-12-10T21:47:39;41.45;;;17.38;;
56599;SDS011;51832;48.152;11.530;2022-12-10T21:52:39;36.78;;;16.30;;
56599;SDS011;51832;48.152;11.530;2022-12-10T21:57:40;39.63;;;17.27;;
56599;SDS011;51832;48.152;11.530;2022-12-10T22:02:40;39.88;;;16.73;;
56599;SDS011;51832;48.152;11.530;2022-12-10T22:07:41;44.58;;;17.27;;
56599;SDS011;51832;48.152;11.530;2022-12-10T22:12:42;41.17;;;16.60;;
56599;SDS011;51832;48.152;11.530;2022-12-10T22:17:42;38.97;;;15.63;;
56599;SDS011;51832;48.152;11.530;2022-12-10T22:22:43;39.85;;;16.77;;
56599;SDS011;51832;48.152;11.530;2022-12-10T22:27:43;45.03;;;16.45;;
56599;SDS011;51832;48.152;11.530;2022-12-10T22:32:43;37.85;;;17.30;;
56599;SDS011;51832;48.152;11.530;2022-12-10T22:37:44;41.63;;;16.02;;
56599;SDS011;51832;48.152;11.530;2022-12-10T22:42:44;40.45;;;17.15;;
56599;SDS011;51832;48.152;11.530;2022-12-10T22:47:45;44.00;;;17.88;;
56599;SDS011;51832;48.152;11.530;2022-12-10T22:52:45;38.70;;;16.65;;
56599;SDS011;51832;48.152;11.530;2022-12-10T22:57:45;40.47;;;16.80;;
56599;SDS011;51832;48.152;11.530;2022-12-10T23:02:46;38.13;;;15.73;;
56599;SDS011;51832;48.152;11.530;2022-12-10T23:07:46;42.30;;;17.85;;
56599;SDS011;51832;48.152;11.530;2022-12-10T23:12:47;41.72;;;16.55;;
56599;SDS011;51832;48.152;11.530;2022-12-10T23:18:05;46.80;;;16.90;;
56599;SDS011;51832;48.152;11.530;2022-12-10T23:23:06;46.67;;;18.33;;
56599;SDS011;51832;48.152;11.530;2022-12-10T23:28:07;38.40;;;16.40;;
56599;SDS011;51832;48.152;11.530;2022-12-10T23:33:08;35.40;;;16.17;;
56599;SDS011;51832;48.152;11.530;2022-12-10T23:38:09;36.80;;;15.85;;
56599;SDS011;51832;48.152;11.530;2022-12-10T23:43:11;37.45;;;15.35;;
56599;SDS011;51832;48.152;11.530;2022-12-10T23:48:11;39.67;;;15.80;;
56599;SDS011;51832;48.152;11.530;2022-12-10T23:53:12;37.45;;;16.13;;
56599;SDS011;51832;48.152;11.530;2022-12-10T23:58:12;34.38;;;14.05;;
